Главная страница
METAR-TAF:

METAR-TAF

Аэропорты :

Актау, Казахстан

широта: 43-52-12N, долгота: 051-06E, высота над уровнем моря: м

Текущие метеонаблюдения

Эта сводка был подготовлена 38 минут назад, в 19:00 UTC
Ветер 8 Узел от северо-северо-восточный
Температура 6°C
Влажность 70%
Давление 1035 hPa
Видимость 10 км и более
Нет облачности ниже 1500 м, и нет кучево-дождевой облачности

METAR: UATE 261900Z 03004MPS CAVOK 06/01 Q1035 R30/0///70 NOSIG RMK QFE774/1033

Время: 00:38 (19:38 UTC)

Прогноз

Эта сводка был подготовлена 2 часа и 38 минут назад, в 17:00 UTC
Прогноз действительный с 26-го 18 UTC до 27-го 18 UTC
Ветер 10 Узел от северо-восточный
Видимость 10 км и более

TAF: UATE 261700Z 2618/2718 05005MPS 9999 NSC TX17/2709Z TN08/2702Z

Метеонаблюдения и прогнозы для более 4000 аэропортов (сводки METAR и TAF).

Имеющиеся станции представлены на карте желтыми и красными точками.

Чтобы увидеть название станции, наведите на нее мышь.

Затем щелкните, чтобы увидеть метеонаблюдения и метеопрогнозы.

Управление картой: чтобы увеличить масштаб, щелкните зеленые кнопки с черным крестиком; чтобы уменьшить масштаб, щелкните зеленую кнопку с тире; для просмотра соседних карт щелкайте зеленые стрелки.


METAR-TAF: